PWSweather.com
Personal Weather Stations
Station Observations
REUBENS
Camas Prairie, Reubens, ID 83548

Camas PrairieReubens, ID 83548

Lat: 46.35417, Lon: -116.53167

Elevation: 3480

Station Type: Davis VantagePro 2

http://www.theobrienranch.com/wx/wx.htm

Latest ConditionsUpdated 4:30:00 PM PDT Thursday, Aug 25, 2016
Currently Today's Max Today's Min Today's Average
Temperature 76.3°F24.6°C 78.7°F25.9°C 45.7°F7.6°C 62.0°F16.7°C
Dew Point 36.8°F2.7°C 42.9°F6.1°C 36.8°F2.7°C 39.9°F4.4°C
Winds 5.8 mph W9.3 kmh W 8.1 mph E13.0 kmh E - 3.8 mph 6.1 kmh
Wind Gusts 6.9 mph11.1 kmh 12.7 mph20.4 kmh - -
Humidity 24% 72% 24% 47%
Pressure 30.08 in1018.6 mb 30.24 in1024.0 mb 30.08 in1018.6 mb -
Hour Temp Dew Point Humidity Winds Wind Gusts Pressure Precip Precip Rate Daily Precip Total
04:30 PM 76.3°F24.6°C 36.8°F2.7°C 24% 5.8 mph W9.3 kmh W 6.9 mph11.1 kmh 30.08 in1018.6 mb - 0.00 in0.0 mm 0.00 in0.0 mm
04:15 PM 78.7°F25.9°C 38.9°F3.8°C 24% 3.5 mph N5.6 kmh N 6.9 mph11.1 kmh 30.08 in1018.6 mb - 0.00 in0.0 mm 0.00 in0.0 mm
04:00 PM 77.1°F25.1°C 38.5°F3.6°C 25% 2.3 mph N3.7 kmh N 4.6 mph7.4 kmh 30.09 in1019.0 mb - 0.00 in0.0 mm 0.00 in0.0 mm
03:45 PM 76.0°F24.4°C 38.6°F3.7°C 26% 2.3 mph NE3.7 kmh NE 10.4 mph16.7 kmh 30.09 in1019.0 mb - 0.00 in0.0 mm 0.00 in0.0 mm
03:30 PM 75.1°F23.9°C 38.8°F3.8°C 27% 3.5 mph NE5.6 kmh NE 5.8 mph9.3 kmh 30.10 in1019.3 mb - 0.00 in0.0 mm 0.00 in0.0 mm
03:15 PM 73.7°F23.2°C 37.6°F3.1°C 27% 3.5 mph E5.6 kmh E 9.2 mph14.8 kmh 30.11 in1019.6 mb - 0.00 in0.0 mm 0.00 in0.0 mm
03:00 PM 74.2°F23.4°C 39.0°F3.9°C 28% 5.8 mph ENE9.3 kmh ENE 9.2 mph14.8 kmh 30.09 in1019.0 mb - 0.00 in0.0 mm 0.00 in0.0 mm
02:45 PM 73.5°F23.1°C 38.4°F3.6°C 28% 3.5 mph SSE5.6 kmh SSE 4.6 mph7.4 kmh 30.10 in1019.3 mb - 0.00 in0.0 mm 0.00 in0.0 mm
02:30 PM 73.2°F22.9°C 38.1°F3.4°C 28% 5.8 mph NE9.3 kmh NE 8.1 mph13.0 kmh 30.11 in1019.6 mb - 0.00 in0.0 mm 0.00 in0.0 mm
02:15 PM 73.0°F22.8°C 38.8°F3.8°C 29% 4.6 mph E7.4 kmh E 6.9 mph11.1 kmh 30.11 in1019.6 mb - 0.00 in0.0 mm 0.00 in0.0 mm
02:00 PM 72.0°F22.2°C 38.8°F3.8°C 30% 6.9 mph E11.1 kmh E 10.4 mph16.7 kmh 30.12 in1020.0 mb - 0.00 in0.0 mm 0.00 in0.0 mm
01:45 PM 72.6°F22.6°C 39.4°F4.1°C 30% 1.2 mph E1.9 kmh E 5.8 mph9.3 kmh 30.12 in1020.0 mb - 0.00 in0.0 mm 0.00 in0.0 mm
01:30 PM 72.1°F22.3°C 39.8°F4.3°C 31% 4.6 mph S7.4 kmh S 5.8 mph9.3 kmh 30.13 in1020.3 mb - 0.00 in0.0 mm 0.00 in0.0 mm
01:15 PM 71.8°F22.1°C 39.6°F4.2°C 31% 6.9 mph E11.1 kmh E 10.4 mph16.7 kmh 30.14 in1020.7 mb - 0.00 in0.0 mm 0.00 in0.0 mm
01:00 PM 73.2°F22.9°C 42.3°F5.7°C 33% Calm Calm -- 30.13 in1020.3 mb - 0.00 in0.0 mm 0.00 in0.0 mm
12:45 PM 73.6°F23.1°C 41.9°F5.5°C 32% 6.9 mph N11.1 kmh N 9.2 mph14.8 kmh 30.13 in1020.3 mb - 0.00 in0.0 mm 0.00 in0.0 mm
12:30 PM 73.8°F23.2°C 42.9°F6.1°C 33% 1.2 mph NE1.9 kmh NE 2.3 mph3.7 kmh 30.13 in1020.3 mb - 0.00 in0.0 mm 0.00 in0.0 mm
12:15 PM 71.5°F21.9°C 41.7°F5.4°C 34% 5.8 mph NE9.3 kmh NE 5.8 mph9.3 kmh 30.14 in1020.7 mb - 0.00 in0.0 mm 0.00 in0.0 mm
12:00 PM 71.7°F22.1°C 41.9°F5.5°C 34% 5.8 mph ENE9.3 kmh ENE 10.4 mph16.7 kmh 30.15 in1021.0 mb - 0.00 in0.0 mm 0.00 in0.0 mm
11:45 AM 70.1°F21.2°C 41.9°F5.5°C 36% 4.6 mph NE7.4 kmh NE 5.8 mph9.3 kmh 30.16 in1021.3 mb - 0.00 in0.0 mm 0.00 in0.0 mm
11:30 AM 69.7°F20.9°C 40.8°F4.9°C 35% 4.6 mph ENE7.4 kmh ENE 6.9 mph11.1 kmh 30.16 in1021.3 mb - 0.00 in0.0 mm 0.00 in0.0 mm
11:15 AM 68.7°F20.4°C 40.6°F4.8°C 36% 6.9 mph E11.1 kmh E 12.7 mph20.4 kmh 30.16 in1021.3 mb - 0.00 in0.0 mm 0.00 in0.0 mm
11:00 AM 68.1°F20.1°C 40.8°F4.9°C 37% 6.9 mph SE11.1 kmh SE 9.2 mph14.8 kmh 30.18 in1022.0 mb - 0.00 in0.0 mm 0.00 in0.0 mm
10:45 AM 66.7°F19.3°C 40.3°F4.6°C 38% 5.8 mph ENE9.3 kmh ENE 8.1 mph13.0 kmh 30.18 in1022.0 mb - 0.00 in0.0 mm 0.00 in0.0 mm
10:30 AM 66.3°F19.1°C 39.9°F4.4°C 38% 5.8 mph ESE9.3 kmh ESE 11.5 mph18.5 kmh 30.19 in1022.4 mb - 0.00 in0.0 mm 0.00 in0.0 mm
10:15 AM 65.7°F18.7°C 40.7°F4.8°C 40% 4.6 mph E7.4 kmh E 10.4 mph16.7 kmh 30.19 in1022.4 mb - 0.00 in0.0 mm 0.00 in0.0 mm
10:00 AM 64.9°F18.3°C 40.0°F4.4°C 40% 8.1 mph E13.0 kmh E 9.2 mph14.8 kmh 30.18 in1022.0 mb - 0.00 in0.0 mm 0.00 in0.0 mm
09:45 AM 64.6°F18.1°C 39.7°F4.3°C 40% 6.9 mph E11.1 kmh E 10.4 mph16.7 kmh 30.18 in1022.0 mb - 0.00 in0.0 mm 0.00 in0.0 mm
09:30 AM 64.1°F17.8°C 40.5°F4.7°C 42% 5.8 mph E9.3 kmh E 9.2 mph14.8 kmh 30.20 in1022.7 mb - 0.00 in0.0 mm 0.00 in0.0 mm
09:15 AM 62.8°F17.1°C 40.0°F4.4°C 43% 5.8 mph E9.3 kmh E 5.8 mph9.3 kmh 30.20 in1022.7 mb - 0.00 in0.0 mm 0.00 in0.0 mm
09:00 AM 61.9°F16.6°C 40.3°F4.6°C 45% 3.5 mph ESE5.6 kmh ESE 4.6 mph7.4 kmh 30.20 in1022.7 mb - 0.00 in0.0 mm 0.00 in0.0 mm
08:45 AM 60.7°F15.9°C 40.4°F4.7°C 47% 5.8 mph SE9.3 kmh SE 6.9 mph11.1 kmh 30.20 in1022.7 mb - 0.00 in0.0 mm 0.00 in0.0 mm
08:30 AM 60.1°F15.6°C 39.8°F4.3°C 47% 6.9 mph ESE11.1 kmh ESE 10.4 mph16.7 kmh 30.20 in1022.7 mb - 0.00 in0.0 mm 0.00 in0.0 mm
08:15 AM 59.5°F15.3°C 40.3°F4.6°C 49% 5.8 mph ESE9.3 kmh ESE 6.9 mph11.1 kmh 30.21 in1023.0 mb - 0.00 in0.0 mm 0.00 in0.0 mm
08:00 AM 58.6°F14.8°C 41.0°F5.0°C 52% 3.5 mph SE5.6 kmh SE 4.6 mph7.4 kmh 30.20 in1022.7 mb - 0.00 in0.0 mm 0.00 in0.0 mm
07:45 AM 57.0°F13.9°C 41.5°F5.3°C 56% Calm Calm 3.5 mph5.6 kmh 30.21 in1023.0 mb - 0.00 in0.0 mm 0.00 in0.0 mm
07:30 AM 52.2°F11.2°C 40.4°F4.7°C 64% Calm Calm -- 30.23 in1023.7 mb - 0.00 in0.0 mm 0.00 in0.0 mm
07:15 AM 50.9°F10.5°C 39.2°F4.0°C 64% Calm Calm -- 30.23 in1023.7 mb - 0.00 in0.0 mm 0.00 in0.0 mm
07:00 AM 48.0°F8.9°C 38.3°F3.5°C 69% Calm Calm -- 30.23 in1023.7 mb - 0.00 in0.0 mm 0.00 in0.0 mm
06:45 AM 45.9°F7.7°C 37.0°F2.8°C 71% Calm Calm -- 30.24 in1024.0 mb - 0.00 in0.0 mm 0.00 in0.0 mm
06:30 AM 45.7°F7.6°C 37.2°F2.9°C 72% 2.3 mph SE3.7 kmh SE 2.3 mph3.7 kmh 30.24 in1024.0 mb - 0.00 in0.0 mm 0.00 in0.0 mm
06:15 AM 46.9°F8.3°C 36.9°F2.7°C 68% Calm Calm -- 30.23 in1023.7 mb - 0.00 in0.0 mm 0.00 in0.0 mm
06:00 AM 49.1°F9.5°C 38.2°F3.4°C 66% Calm Calm -- 30.22 in1023.4 mb - 0.00 in0.0 mm 0.00 in0.0 mm
05:45 AM 48.3°F9.1°C 38.6°F3.7°C 69% Calm Calm -- 30.22 in1023.4 mb - 0.00 in0.0 mm 0.00 in0.0 mm
05:30 AM 46.9°F8.3°C 37.3°F2.9°C 69% Calm Calm -- 30.22 in1023.4 mb - 0.00 in0.0 mm 0.00 in0.0 mm
05:15 AM 50.3°F10.2°C 38.9°F3.8°C 65% Calm Calm -- 30.21 in1023.0 mb - 0.00 in0.0 mm 0.00 in0.0 mm
05:00 AM 50.6°F10.3°C 38.9°F3.8°C 64% 3.5 mph E5.6 kmh E 3.5 mph5.6 kmh 30.19 in1022.4 mb - 0.00 in0.0 mm 0.00 in0.0 mm
04:45 AM 49.6°F9.8°C 38.7°F3.7°C 66% Calm Calm -- 30.20 in1022.7 mb - 0.00 in0.0 mm 0.00 in0.0 mm
04:30 AM 47.9°F8.8°C 38.2°F3.4°C 69% Calm Calm -- 30.20 in1022.7 mb - 0.00 in0.0 mm 0.00 in0.0 mm
04:15 AM 49.3°F9.6°C 38.0°F3.3°C 65% 1.2 mph E1.9 kmh E 2.3 mph3.7 kmh 30.20 in1022.7 mb - 0.00 in0.0 mm 0.00 in0.0 mm
04:00 AM 49.2°F9.6°C 38.7°F3.7°C 67% 1.2 mph E1.9 kmh E 2.3 mph3.7 kmh 30.20 in1022.7 mb - 0.00 in0.0 mm 0.00 in0.0 mm
03:45 AM 52.2°F11.2°C 38.8°F3.8°C 60% Calm Calm -- 30.18 in1022.0 mb - 0.00 in0.0 mm 0.00 in0.0 mm
03:30 AM 53.5°F11.9°C 39.9°F4.4°C 60% 4.6 mph E7.4 kmh E 4.6 mph7.4 kmh 30.18 in1022.0 mb - 0.00 in0.0 mm 0.00 in0.0 mm
03:15 AM 57.6°F14.2°C 40.6°F4.8°C 53% 4.6 mph E7.4 kmh E 5.8 mph9.3 kmh 30.16 in1021.3 mb - 0.00 in0.0 mm 0.00 in0.0 mm
03:00 AM 58.6°F14.8°C 41.0°F5.0°C 52% 4.6 mph E7.4 kmh E 4.6 mph7.4 kmh 30.16 in1021.3 mb - 0.00 in0.0 mm 0.00 in0.0 mm
02:45 AM 59.0°F15.0°C 40.9°F4.9°C 51% 4.6 mph E7.4 kmh E 4.6 mph7.4 kmh 30.16 in1021.3 mb - 0.00 in0.0 mm 0.00 in0.0 mm
02:30 AM 58.4°F14.7°C 41.4°F5.2°C 53% 3.5 mph E5.6 kmh E 3.5 mph5.6 kmh 30.16 in1021.3 mb - 0.00 in0.0 mm 0.00 in0.0 mm
02:15 AM 57.1°F13.9°C 41.1°F5.1°C 55% 3.5 mph E5.6 kmh E 3.5 mph5.6 kmh 30.16 in1021.3 mb - 0.00 in0.0 mm 0.00 in0.0 mm
02:00 AM 59.0°F15.0°C 41.4°F5.2°C 52% 4.6 mph E7.4 kmh E 4.6 mph7.4 kmh 30.16 in1021.3 mb - 0.00 in0.0 mm 0.00 in0.0 mm
01:45 AM 60.0°F15.6°C 41.8°F5.4°C 51% 5.8 mph E9.3 kmh E 6.9 mph11.1 kmh 30.17 in1021.7 mb - 0.00 in0.0 mm 0.00 in0.0 mm
01:30 AM 59.0°F15.0°C 41.4°F5.2°C 52% 6.9 mph E11.1 kmh E 6.9 mph11.1 kmh 30.17 in1021.7 mb - 0.00 in0.0 mm 0.00 in0.0 mm
01:15 AM 58.4°F14.7°C 41.4°F5.2°C 53% 4.6 mph E7.4 kmh E 5.8 mph9.3 kmh 30.18 in1022.0 mb - 0.00 in0.0 mm 0.00 in0.0 mm
01:00 AM 58.6°F14.8°C 41.5°F5.3°C 53% 2.3 mph E3.7 kmh E 3.5 mph5.6 kmh 30.18 in1022.0 mb - 0.00 in0.0 mm 0.00 in0.0 mm
12:45 AM 59.0°F15.0°C 41.4°F5.2°C 52% 5.8 mph E9.3 kmh E 8.1 mph13.0 kmh 30.18 in1022.0 mb - 0.00 in0.0 mm 0.00 in0.0 mm
12:30 AM 60.5°F15.8°C 41.8°F5.4°C 50% 6.9 mph E11.1 kmh E 8.1 mph13.0 kmh 30.17 in1021.7 mb - 0.00 in0.0 mm 0.00 in0.0 mm
12:15 AM 60.9°F16.1°C 41.6°F5.3°C 49% 5.8 mph E9.3 kmh E 5.8 mph9.3 kmh 30.17 in1021.7 mb - 0.00 in0.0 mm 0.00 in0.0 mm
12:00 AM 60.0°F15.6°C 41.8°F5.4°C 51% 5.8 mph E9.3 kmh E 5.8 mph9.3 kmh 30.19 in1022.4 mb - 0.00 in0.0 mm 0.00 in0.0 mm